createdAt,value
2022-10-30T00:00:57.249Z,0
2022-10-30T00:03:06.752Z,0
2022-10-30T00:04:09.508Z,0
2022-10-30T00:05:13.233Z,0
2022-10-30T00:08:21.476Z,0
2022-10-30T00:09:24.551Z,0
2022-10-30T00:10:27.721Z,0
2022-10-30T00:11:30.432Z,0
2022-10-30T00:13:36.434Z,0
2022-10-30T00:15:43.230Z,0
2022-10-30T00:16:46.297Z,0
2022-10-30T00:17:50.032Z,0
2022-10-30T00:18:53.179Z,0
2022-10-30T00:20:59.705Z,0
2022-10-30T00:23:04.153Z,0
2022-10-30T00:24:06.868Z,0
2022-10-30T00:26:12.197Z,0
2022-10-30T00:28:18.117Z,0
2022-10-30T00:29:20.911Z,0
2022-10-30T00:30:24.249Z,0
2022-10-30T00:31:27.331Z,0
2022-10-30T00:33:34.594Z,0
2022-10-30T00:35:40.585Z,0
2022-10-30T00:36:43.096Z,0
2022-10-30T00:38:50.022Z,0
2022-10-30T00:40:55.152Z,0
2022-10-30T00:43:01.959Z,0
2022-10-30T00:44:05.314Z,0
2022-10-30T00:46:11.265Z,0
2022-10-30T00:47:14.920Z,0
2022-10-30T00:49:21.814Z,0
2022-10-30T00:51:27.393Z,0
2022-10-30T00:53:34.357Z,0
2022-10-30T00:54:37.153Z,0
2022-10-30T00:56:43.471Z,0
2022-10-30T00:58:49.336Z,0
2022-10-30T01:00:56.429Z,0
2022-10-30T01:02:00.866Z,0
2022-10-30T01:04:07.326Z,0
2022-10-30T01:06:13.797Z,0
2022-10-30T01:07:17.160Z,0
2022-10-30T01:08:21.459Z,0
2022-10-30T01:09:24.552Z,0
2022-10-30T01:11:30.533Z,0
2022-10-30T01:13:36.598Z,0
2022-10-30T01:14:39.030Z,0
2022-10-30T01:16:44.929Z,0
2022-10-30T01:17:47.257Z,0
2022-10-30T01:19:54.145Z,0
2022-10-30T01:22:00.797Z,0
2022-10-30T01:23:04.546Z,0
2022-10-30T01:25:09.846Z,0
2022-10-30T01:27:15.354Z,0
2022-10-30T01:28:17.787Z,0
2022-10-30T01:30:24.277Z,0
2022-10-30T01:31:27.273Z,0
2022-10-30T01:33:33.527Z,0
2022-10-30T01:34:37.125Z,0
2022-10-30T01:36:43.861Z,0
2022-10-30T01:37:46.295Z,0
2022-10-30T01:38:50.391Z,0
2022-10-30T01:39:53.463Z,0
2022-10-30T01:42:00.372Z,0
2022-10-30T01:44:06.823Z,0
2022-10-30T01:45:09.890Z,0
2022-10-30T01:47:14.687Z,0
2022-10-30T01:48:17.748Z,0
2022-10-30T01:50:24.542Z,0
2022-10-30T01:51:27.629Z,0
2022-10-30T01:53:34.626Z,0
2022-10-30T01:55:40.855Z,0
2022-10-30T01:56:44.575Z,0
2022-10-30T01:58:49.694Z,0
2022-10-30T02:00:55.824Z,0
2022-10-30T02:02:00.059Z,0
2022-10-30T02:04:07.341Z,0
2022-10-30T02:06:14.256Z,0
2022-10-30T02:08:20.923Z,0
2022-10-30T02:09:23.625Z,0
2022-10-30T02:11:28.569Z,0
2022-10-30T02:13:34.955Z,0
2022-10-30T02:15:40.540Z,0
2022-10-30T02:16:43.327Z,0
2022-10-30T02:18:49.667Z,0
2022-10-30T02:20:56.527Z,0
2022-10-30T02:23:06.653Z,0
2022-10-30T02:24:10.776Z,0
2022-10-30T02:26:15.716Z,0
2022-10-30T02:28:21.050Z,0
2022-10-30T02:30:26.844Z,0
2022-10-30T02:31:29.654Z,0
2022-10-30T02:33:35.255Z,0
2022-10-30T02:35:40.759Z,0
2022-10-30T02:37:47.043Z,0
2022-10-30T02:38:50.470Z,0
2022-10-30T02:40:57.102Z,0
2022-10-30T02:43:03.144Z,0
2022-10-30T02:45:09.406Z,0
2022-10-30T02:46:12.483Z,0
2022-10-30T02:48:18.178Z,0
2022-10-30T02:50:23.679Z,0
2022-10-30T02:52:29.260Z,0
2022-10-30T02:53:32.621Z,0
2022-10-30T02:55:38.674Z,0
2022-10-30T02:57:44.261Z,0
2022-10-30T02:59:51.166Z,0
2022-10-30T03:00:53.926Z,0
2022-10-30T03:03:00.746Z,0
2022-10-30T03:05:06.541Z,0
2022-10-30T03:07:11.737Z,0
2022-10-30T03:08:15.435Z,0
2022-10-30T03:10:22.310Z,0
2022-10-30T03:12:29.316Z,0
2022-10-30T03:13:32.487Z,0
2022-10-30T03:14:36.084Z,0
2022-10-30T03:15:38.596Z,0
2022-10-30T03:17:43.135Z,0
2022-10-30T03:18:46.213Z,0
2022-10-30T03:19:49.317Z,0
2022-10-30T03:20:51.912Z,0
2022-10-30T03:22:56.852Z,0
2022-10-30T03:23:59.911Z,0
2022-10-30T03:25:02.724Z,0
2022-10-30T03:26:06.494Z,0
2022-10-30T03:28:12.484Z,0
2022-10-30T03:29:15.005Z,0
2022-10-30T03:30:18.003Z,0
2022-10-30T03:31:20.907Z,0
2022-10-30T03:33:26.844Z,0
2022-10-30T03:34:30.545Z,0
2022-10-30T03:35:33.911Z,0
2022-10-30T03:36:37.069Z,0
2022-10-30T03:38:43.747Z,0
2022-10-30T03:39:46.843Z,0
2022-10-30T03:40:49.732Z,0
2022-10-30T03:41:53.199Z,0
2022-10-30T03:44:00.587Z,0
2022-10-30T03:46:06.793Z,0
2022-10-30T03:48:13.367Z,0
2022-10-30T03:49:15.829Z,0
2022-10-30T03:51:22.189Z,0
2022-10-30T03:53:28.325Z,0
2022-10-30T03:54:31.387Z,0
2022-10-30T03:56:37.161Z,0
2022-10-30T03:58:44.960Z,0
2022-10-30T04:00:50.200Z,0
2022-10-30T04:01:54.912Z,0
2022-10-30T04:04:04.025Z,0
2022-10-30T04:06:10.137Z,0
2022-10-30T04:08:16.478Z,0
2022-10-30T04:09:19.290Z,0
2022-10-30T04:11:28.607Z,0
2022-10-30T04:13:34.835Z,0
2022-10-30T04:15:41.937Z,0
2022-10-30T04:16:45.037Z,0
2022-10-30T04:17:47.004Z,0
2022-10-30T04:18:49.726Z,0
2022-10-30T04:20:55.437Z,0
2022-10-30T04:21:58.512Z,0
2022-10-30T04:23:01.674Z,0
2022-10-30T04:24:05.123Z,0
2022-10-30T04:26:11.027Z,0
2022-10-30T04:27:14.168Z,0
2022-10-30T04:28:16.701Z,0
2022-10-30T04:29:20.426Z,0
2022-10-30T04:31:27.999Z,0
2022-10-30T04:32:30.438Z,0
2022-10-30T04:33:33.425Z,0
2022-10-30T04:34:36.007Z,0
2022-10-30T04:36:41.962Z,0
2022-10-30T04:37:44.753Z,0
2022-10-30T04:39:50.983Z,0
2022-10-30T04:41:57.897Z,0
2022-10-30T04:43:02.990Z,0
2022-10-30T04:45:17.460Z,0
2022-10-30T04:47:23.889Z,0
2022-10-30T04:49:30.332Z,0
2022-10-30T04:50:33.121Z,0
2022-10-30T04:51:35.941Z,0
2022-10-30T04:52:38.933Z,0
2022-10-30T04:54:44.368Z,0
2022-10-30T04:55:47.076Z,0
2022-10-30T04:56:49.783Z,0
2022-10-30T04:57:52.220Z,0
2022-10-30T04:59:58.469Z,0
2022-10-30T05:01:05.685Z,0
2022-10-30T05:02:11.055Z,0
2022-10-30T05:03:14.306Z,0
2022-10-30T05:05:19.977Z,0
2022-10-30T05:06:23.363Z,0
2022-10-30T05:07:26.727Z,0
2022-10-30T05:08:29.250Z,0
2022-10-30T05:10:35.213Z,0
2022-10-30T05:11:38.581Z,0
2022-10-30T05:12:41.612Z,0
2022-10-30T05:13:44.649Z,0
2022-10-30T05:15:49.718Z,0
2022-10-30T05:17:59.388Z,0
2022-10-30T05:19:03.009Z,0
2022-10-30T05:20:06.118Z,0
2022-10-30T05:21:08.917Z,0
2022-10-30T05:23:14.059Z,0
2022-10-30T05:25:19.767Z,0
2022-10-30T05:26:22.295Z,0
2022-10-30T05:27:25.472Z,0
2022-10-30T05:28:28.353Z,0
2022-10-30T05:30:34.779Z,0
2022-10-30T05:32:40.954Z,0
2022-10-30T05:34:46.941Z,0
2022-10-30T05:35:50.074Z,0
2022-10-30T05:37:55.409Z,0
2022-10-30T05:40:02.549Z,0
2022-10-30T05:42:15.111Z,0
2022-10-30T05:43:17.907Z,0
2022-10-30T05:45:03.612Z,0
2022-10-30T05:47:09.832Z,0
2022-10-30T05:48:13.579Z,0
2022-10-30T05:50:20.211Z,0
2022-10-30T05:52:26.144Z,0
2022-10-30T05:54:32.113Z,0
2022-10-30T05:55:34.837Z,0
2022-10-30T05:57:39.891Z,1
2022-10-30T05:59:45.405Z,1
2022-10-30T06:01:51.380Z,1
2022-10-30T06:02:54.389Z,1
2022-10-30T06:05:01.439Z,2
2022-10-30T06:07:07.396Z,2
2022-10-30T06:09:13.544Z,3
2022-10-30T06:10:16.299Z,3
2022-10-30T06:12:21.874Z,4
2022-10-30T06:14:27.422Z,4
2022-10-30T06:16:33.402Z,5
2022-10-30T06:17:36.378Z,5
2022-10-30T06:19:42.634Z,6
2022-10-30T06:21:48.089Z,7
2022-10-30T06:22:50.880Z,7
2022-10-30T06:24:55.643Z,8
2022-10-30T06:27:00.927Z,9
2022-10-30T06:29:07.406Z,10
2022-10-30T06:30:10.282Z,11
2022-10-30T06:32:17.247Z,12
2022-10-30T06:34:22.936Z,13
2022-10-30T06:35:26.295Z,13
2022-10-30T06:36:30.085Z,14
2022-10-30T06:37:33.743Z,14
2022-10-30T06:39:39.086Z,16
2022-10-30T06:40:42.167Z,16
2022-10-30T06:41:44.892Z,17
2022-10-30T06:42:47.340Z,17
2022-10-30T06:44:53.488Z,19
2022-10-30T06:45:57.265Z,19
2022-10-30T06:47:00.465Z,20
2022-10-30T06:48:04.812Z,21
2022-10-30T06:50:10.884Z,22
2022-10-30T06:51:13.956Z,23
2022-10-30T06:52:17.446Z,24
2022-10-30T06:53:20.830Z,25
2022-10-30T06:55:26.186Z,27
2022-10-30T06:57:32.425Z,28
2022-10-30T06:58:35.849Z,29
2022-10-30T07:00:43.007Z,31
2022-10-30T07:02:49.911Z,33
2022-10-30T07:04:55.582Z,35
2022-10-30T07:05:58.397Z,37
2022-10-30T07:08:05.702Z,39
2022-10-30T07:10:12.669Z,41
2022-10-30T07:12:18.841Z,46
2022-10-30T07:13:21.912Z,54
2022-10-30T07:15:28.086Z,61
2022-10-30T07:17:34.636Z,64
2022-10-30T07:19:40.893Z,68
2022-10-30T07:20:44.181Z,71
2022-10-30T07:22:50.531Z,74
2022-10-30T07:24:56.813Z,82
2022-10-30T07:26:06.211Z,85
2022-10-30T07:27:08.731Z,88
2022-10-30T07:28:11.446Z,91
2022-10-30T07:29:15.180Z,96
2022-10-30T07:30:18.467Z,101
2022-10-30T07:32:04.495Z,105
2022-10-30T07:33:08.072Z,113
2022-10-30T07:35:14.665Z,119
2022-10-30T07:37:20.185Z,125
2022-10-30T07:38:23.361Z,129
2022-10-30T07:39:26.838Z,133
2022-10-30T07:40:29.904Z,136
2022-10-30T07:42:35.489Z,155
2022-10-30T07:43:38.849Z,184
2022-10-30T07:44:41.943Z,229
2022-10-30T07:45:45.393Z,260
2022-10-30T07:47:51.465Z,258
2022-10-30T07:48:53.979Z,254
2022-10-30T07:49:56.854Z,265
2022-10-30T07:50:59.653Z,274
2022-10-30T07:53:06.332Z,309
2022-10-30T07:55:13.354Z,337
2022-10-30T07:57:19.020Z,372
2022-10-30T07:58:21.908Z,388
2022-10-30T08:00:28.655Z,389
2022-10-30T08:02:37.411Z,397
2022-10-30T08:04:42.414Z,404
2022-10-30T08:05:45.523Z,407
2022-10-30T08:07:51.371Z,417
2022-10-30T08:09:57.650Z,431
2022-10-30T08:12:04.842Z,434
2022-10-30T08:13:08.189Z,438
2022-10-30T08:15:13.508Z,410
2022-10-30T08:17:19.406Z,270
2022-10-30T08:19:25.622Z,207
2022-10-30T08:20:28.779Z,226
2022-10-30T08:22:34.561Z,334
2022-10-30T08:24:40.759Z,341
2022-10-30T08:25:44.447Z,363
2022-10-30T08:27:51.467Z,336
2022-10-30T08:29:58.380Z,379
2022-10-30T08:32:04.382Z,284
2022-10-30T08:33:08.090Z,289
2022-10-30T08:35:22.746Z,242
2022-10-30T08:37:29.353Z,308
2022-10-30T08:39:35.368Z,469
2022-10-30T08:40:38.836Z,453
2022-10-30T08:42:46.363Z,415
2022-10-30T08:44:51.755Z,369
2022-10-30T08:46:58.117Z,379
2022-10-30T08:48:03.778Z,339
2022-10-30T08:50:11.787Z,490
2022-10-30T08:52:17.871Z,551
2022-10-30T08:54:23.472Z,571
2022-10-30T08:55:25.988Z,572
2022-10-30T08:57:32.531Z,577
2022-10-30T08:59:39.245Z,569
2022-10-30T09:01:45.625Z,571
2022-10-30T09:02:48.528Z,590
2022-10-30T09:04:54.120Z,621
2022-10-30T09:06:59.019Z,606
2022-10-30T09:09:06.929Z,615
2022-10-30T09:10:10.086Z,628
2022-10-30T09:12:15.982Z,657
2022-10-30T09:14:23.242Z,677
2022-10-30T09:15:26.312Z,674
2022-10-30T09:16:29.478Z,660
2022-10-30T09:17:32.785Z,640
2022-10-30T09:19:38.216Z,584
2022-10-30T09:21:44.148Z,592
2022-10-30T09:22:47.505Z,616
2022-10-30T09:24:52.996Z,685
2022-10-30T09:26:58.243Z,718
2022-10-30T09:29:06.025Z,739
2022-10-30T09:30:09.913Z,740
2022-10-30T09:32:16.131Z,741
2022-10-30T09:34:22.627Z,745
2022-10-30T09:35:26.376Z,749
2022-10-30T09:36:29.196Z,749
2022-10-30T09:37:31.996Z,752
2022-10-30T09:39:37.510Z,753
2022-10-30T09:40:40.690Z,752
2022-10-30T09:41:52.520Z,752
2022-10-30T09:42:55.834Z,760
2022-10-30T09:45:32.056Z,762
2022-10-30T09:47:38.377Z,754
2022-10-30T09:48:41.180Z,752
2022-10-30T09:50:46.241Z,761
2022-10-30T09:51:49.227Z,771
2022-10-30T09:53:56.055Z,781
2022-10-30T09:54:58.849Z,783
2022-10-30T09:57:04.704Z,778
2022-10-30T09:59:10.892Z,774
2022-10-30T10:00:13.948Z,782
2022-10-30T10:02:22.453Z,790
2022-10-30T10:03:24.733Z,796
2022-10-30T10:05:32.789Z,796
2022-10-30T10:07:38.448Z,791
2022-10-30T10:08:40.886Z,789
2022-10-30T10:10:47.182Z,775
2022-10-30T10:13:03.927Z,764
2022-10-30T10:15:10.677Z,639
2022-10-30T10:16:13.495Z,608
2022-10-30T10:18:20.424Z,671
2022-10-30T10:20:25.553Z,789
2022-10-30T10:21:28.551Z,798
2022-10-30T10:23:34.143Z,799
2022-10-30T10:25:39.371Z,808
2022-10-30T10:26:42.086Z,813
2022-10-30T10:28:47.600Z,828
2022-10-30T10:29:51.346Z,834
2022-10-30T10:31:56.867Z,851
2022-10-30T10:33:02.954Z,852
2022-10-30T10:35:09.665Z,814
2022-10-30T10:37:15.300Z,715
2022-10-30T10:38:18.182Z,447
2022-10-30T10:40:25.436Z,435
2022-10-30T10:41:27.873Z,320
2022-10-30T10:43:33.754Z,882
2022-10-30T10:45:39.004Z,862
2022-10-30T10:46:41.547Z,907
2022-10-30T10:48:46.770Z,559
2022-10-30T10:49:50.236Z,698
2022-10-30T10:51:56.392Z,592
2022-10-30T10:54:05.295Z,783
2022-10-30T10:55:08.751Z,756
2022-10-30T10:56:11.273Z,868
2022-10-30T10:57:14.348Z,826
2022-10-30T10:58:17.238Z,786
2022-10-30T11:00:24.050Z,863
2022-10-30T11:02:31.586Z,901
2022-10-30T11:03:34.423Z,710
2022-10-30T11:05:41.720Z,862
2022-10-30T11:07:47.735Z,830
2022-10-30T11:08:50.163Z,827
2022-10-30T11:10:56.577Z,852
2022-10-30T11:13:03.896Z,863
2022-10-30T11:14:06.971Z,857
2022-10-30T11:16:12.290Z,847
2022-10-30T11:17:15.663Z,835
2022-10-30T11:18:18.673Z,827
2022-10-30T11:19:21.655Z,815
2022-10-30T11:21:28.585Z,800
2022-10-30T11:22:31.364Z,794
2022-10-30T11:24:37.484Z,801
2022-10-30T11:26:43.381Z,799
2022-10-30T11:27:46.082Z,796
2022-10-30T11:29:51.662Z,774
2022-10-30T11:31:58.064Z,747
2022-10-30T11:34:04.453Z,746
2022-10-30T11:35:07.255Z,747
2022-10-30T11:36:18.123Z,759
2022-10-30T11:37:21.879Z,770
2022-10-30T11:39:27.871Z,777
2022-10-30T11:40:30.746Z,781
2022-10-30T11:42:35.634Z,777
2022-10-30T11:44:41.149Z,770
2022-10-30T11:45:43.860Z,758
2022-10-30T11:46:46.964Z,760
2022-10-30T11:47:49.783Z,765
2022-10-30T11:49:55.964Z,738
2022-10-30T11:50:59.534Z,722
2022-10-30T11:52:02.896Z,694
2022-10-30T11:53:06.709Z,672
2022-10-30T11:55:11.717Z,703
2022-10-30T11:56:14.819Z,713
2022-10-30T11:58:20.226Z,742
2022-10-30T12:00:27.357Z,728
2022-10-30T12:01:31.259Z,712
2022-10-30T12:03:39.066Z,679
2022-10-30T12:05:51.964Z,670
2022-10-30T12:06:54.961Z,661
2022-10-30T12:09:02.574Z,665
2022-10-30T12:11:09.023Z,660
2022-10-30T12:12:12.394Z,660
2022-10-30T12:14:19.875Z,640
2022-10-30T12:16:25.214Z,650
2022-10-30T12:18:31.742Z,670
2022-10-30T12:19:35.113Z,666
2022-10-30T12:21:41.675Z,471
2022-10-30T12:23:48.623Z,400
2022-10-30T12:24:52.391Z,476
2022-10-30T12:26:58.163Z,321
2022-10-30T12:28:01.519Z,284
2022-10-30T12:29:04.414Z,234
2022-10-30T12:30:12.089Z,258
2022-10-30T12:32:17.784Z,379
2022-10-30T12:33:21.211Z,256
2022-10-30T12:35:28.733Z,222
2022-10-30T12:37:35.716Z,230
2022-10-30T12:38:38.538Z,183
2022-10-30T12:40:45.723Z,145
2022-10-30T12:42:51.088Z,158
2022-10-30T12:43:54.434Z,161
2022-10-30T12:44:57.786Z,146
2022-10-30T12:46:00.864Z,147
2022-10-30T12:48:07.521Z,303
2022-10-30T12:49:10.518Z,158
2022-10-30T12:51:25.507Z,167
2022-10-30T12:53:31.594Z,204
2022-10-30T12:54:34.411Z,250
2022-10-30T12:56:42.043Z,197
2022-10-30T12:58:48.223Z,178
2022-10-30T12:59:51.288Z,419
2022-10-30T13:01:58.942Z,339
2022-10-30T13:04:06.181Z,180
2022-10-30T13:05:09.909Z,119
2022-10-30T13:07:16.375Z,110
2022-10-30T13:09:22.633Z,107
2022-10-30T13:10:25.355Z,141
2022-10-30T13:12:32.585Z,162
2022-10-30T13:14:38.609Z,121
2022-10-30T13:15:41.413Z,145
2022-10-30T13:16:44.299Z,144
2022-10-30T13:17:46.794Z,115
2022-10-30T13:19:52.942Z,119
2022-10-30T13:20:56.012Z,110
2022-10-30T13:23:03.748Z,97
2022-10-30T13:25:09.849Z,108
2022-10-30T13:26:12.931Z,101
2022-10-30T13:28:19.517Z,105
2022-10-30T13:30:25.194Z,95
2022-10-30T13:31:27.964Z,101
2022-10-30T13:33:34.190Z,87
2022-10-30T13:34:36.909Z,87
2022-10-30T13:36:41.993Z,87
2022-10-30T13:38:47.922Z,86
2022-10-30T13:39:50.992Z,82
2022-10-30T13:41:56.626Z,82
2022-10-30T13:43:00.381Z,82
2022-10-30T13:45:07.511Z,83
2022-10-30T13:46:10.565Z,80
2022-10-30T13:48:16.516Z,79
2022-10-30T13:49:19.674Z,79
2022-10-30T13:51:25.328Z,77
2022-10-30T13:53:30.867Z,76
2022-10-30T13:54:33.870Z,76
2022-10-30T13:56:40.047Z,74
2022-10-30T13:58:45.966Z,74
2022-10-30T13:59:49.743Z,77
2022-10-30T14:02:04.228Z,74
2022-10-30T14:04:10.930Z,68
2022-10-30T14:05:14.071Z,67
2022-10-30T14:06:17.171Z,66
2022-10-30T14:07:20.441Z,66
2022-10-30T14:09:26.395Z,64
2022-10-30T14:10:29.660Z,63
2022-10-30T14:12:36.264Z,59
2022-10-30T14:14:42.845Z,60
2022-10-30T14:15:46.870Z,59
2022-10-30T14:17:51.819Z,56
2022-10-30T14:19:57.253Z,55
2022-10-30T14:20:59.990Z,55
2022-10-30T14:23:05.586Z,52
2022-10-30T14:25:11.665Z,51
2022-10-30T14:27:18.747Z,49
2022-10-30T14:28:22.137Z,49
2022-10-30T14:30:27.880Z,46
2022-10-30T14:32:35.209Z,44
2022-10-30T14:33:38.675Z,43
2022-10-30T14:35:44.976Z,41
2022-10-30T14:37:51.413Z,40
2022-10-30T14:38:54.130Z,39
2022-10-30T14:41:00.650Z,37
2022-10-30T14:43:06.871Z,36
2022-10-30T14:44:10.218Z,35
2022-10-30T14:46:16.343Z,33
2022-10-30T14:47:19.900Z,33
2022-10-30T14:49:25.140Z,31
2022-10-30T14:51:31.135Z,30
2022-10-30T14:52:34.508Z,30
2022-10-30T14:54:39.785Z,29
2022-10-30T14:55:43.064Z,28
2022-10-30T14:57:49.932Z,27
2022-10-30T14:58:52.888Z,26
2022-10-30T15:00:59.621Z,25
2022-10-30T15:03:08.063Z,23
2022-10-30T15:04:10.769Z,22
2022-10-30T15:06:16.487Z,21
2022-10-30T15:07:19.240Z,20
2022-10-30T15:08:22.705Z,19
2022-10-30T15:09:26.067Z,19
2022-10-30T15:10:29.527Z,18
2022-10-30T15:11:32.696Z,17
2022-10-30T15:12:36.804Z,17
2022-10-30T15:14:56.868Z,16
2022-10-30T15:16:00.007Z,15
2022-10-30T15:17:03.013Z,14
2022-10-30T15:18:06.108Z,14
2022-10-30T15:20:13.154Z,12
2022-10-30T15:21:16.145Z,12
2022-10-30T15:23:21.629Z,11
2022-10-30T15:24:34.185Z,10
2022-10-30T15:25:37.163Z,10
2022-10-30T15:26:39.747Z,9
2022-10-30T15:28:45.643Z,9
2022-10-30T15:30:51.773Z,8
2022-10-30T15:31:54.934Z,7
2022-10-30T15:34:03.264Z,6
2022-10-30T15:36:10.025Z,6
2022-10-30T15:37:13.015Z,5
2022-10-30T15:39:18.541Z,4
2022-10-30T15:41:25.307Z,4
2022-10-30T15:43:30.414Z,3
2022-10-30T15:44:33.430Z,3
2022-10-30T15:46:39.946Z,2
2022-10-30T15:48:49.810Z,2
2022-10-30T15:50:56.819Z,1
2022-10-30T15:51:59.895Z,1
2022-10-30T15:54:05.682Z,1
2022-10-30T15:56:21.744Z,1
2022-10-30T15:58:10.513Z,0
2022-10-30T15:59:13.553Z,0
2022-10-30T16:02:24.415Z,0
2022-10-30T16:04:31.599Z,0
2022-10-30T16:06:38.636Z,0
2022-10-30T16:07:41.628Z,0
2022-10-30T16:09:47.985Z,0
2022-10-30T16:11:54.664Z,0
2022-10-30T16:14:03.052Z,0
2022-10-30T16:15:06.120Z,0
2022-10-30T16:17:12.105Z,0
2022-10-30T16:18:15.239Z,0
2022-10-30T16:19:18.251Z,0
2022-10-30T16:20:21.190Z,0
2022-10-30T16:22:28.005Z,0
2022-10-30T16:23:31.305Z,0
2022-10-30T16:25:37.189Z,0
2022-10-30T16:27:42.820Z,0
2022-10-30T16:28:45.910Z,0
2022-10-30T16:29:48.753Z,0
2022-10-30T16:30:52.643Z,0
2022-10-30T16:33:02.510Z,0
2022-10-30T16:34:05.962Z,0
2022-10-30T16:35:09.611Z,0
2022-10-30T16:36:12.434Z,0
2022-10-30T16:38:19.873Z,0
2022-10-30T16:39:22.681Z,0
2022-10-30T16:41:29.548Z,0
2022-10-30T16:43:35.503Z,0
2022-10-30T16:45:41.232Z,0
2022-10-30T16:46:44.304Z,0
2022-10-30T16:48:51.029Z,0
2022-10-30T16:49:53.836Z,0
2022-10-30T16:50:57.133Z,0
2022-10-30T16:51:59.587Z,0
2022-10-30T16:54:07.678Z,0
2022-10-30T16:55:11.129Z,0
2022-10-30T16:57:16.679Z,0
2022-10-30T16:59:23.488Z,0
2022-10-30T17:00:37.912Z,0
2022-10-30T17:01:41.474Z,0
2022-10-30T17:02:45.244Z,0
2022-10-30T17:04:59.636Z,0
2022-10-30T17:07:06.129Z,0
2022-10-30T17:08:09.603Z,0
2022-10-30T17:10:15.966Z,0
2022-10-30T17:12:21.640Z,0
2022-10-30T17:13:24.782Z,0
2022-10-30T17:14:27.216Z,0
2022-10-30T17:15:30.586Z,0
2022-10-30T17:17:37.017Z,0
2022-10-30T17:18:41.536Z,0
2022-10-30T17:20:49.728Z,0
2022-10-30T17:22:59.754Z,0
2022-10-30T17:24:04.139Z,0
2022-10-30T17:26:12.930Z,0
2022-10-30T17:28:19.927Z,0
2022-10-30T17:29:23.849Z,0
2022-10-30T17:31:32.924Z,0
2022-10-30T17:33:41.096Z,0
2022-10-30T17:34:45.926Z,0
2022-10-30T17:35:49.874Z,0
2022-10-30T17:36:55.750Z,0
2022-10-30T17:38:07.480Z,0
2022-10-30T17:39:11.226Z,0
2022-10-30T17:41:19.706Z,0
2022-10-30T17:42:22.221Z,0
2022-10-30T17:43:24.666Z,0
2022-10-30T17:44:27.210Z,0
2022-10-30T17:46:32.749Z,0
2022-10-30T17:47:36.205Z,0
2022-10-30T17:48:38.637Z,0
2022-10-30T17:49:41.800Z,0
2022-10-30T17:51:48.503Z,0
2022-10-30T17:52:52.518Z,0
2022-10-30T17:53:56.162Z,0
2022-10-30T17:54:59.654Z,0
2022-10-30T17:57:06.205Z,0
2022-10-30T17:58:09.481Z,0
2022-10-30T17:59:12.472Z,0
2022-10-30T18:00:15.956Z,0
2022-10-30T18:02:22.940Z,0
2022-10-30T18:04:28.890Z,0
2022-10-30T18:05:31.995Z,0
2022-10-30T18:07:38.741Z,0
2022-10-30T18:08:51.519Z,0
2022-10-30T18:09:55.159Z,0
2022-10-30T18:12:02.127Z,0
2022-10-30T18:13:05.950Z,0
2022-10-30T18:15:11.712Z,0
2022-10-30T18:17:17.340Z,0
2022-10-30T18:19:24.235Z,0
2022-10-30T18:20:27.314Z,0
2022-10-30T18:22:33.848Z,0
2022-10-30T18:24:06.733Z,0
2022-10-30T18:25:10.027Z,0
2022-10-30T18:26:13.449Z,0
2022-10-30T18:27:17.247Z,0
2022-10-30T18:28:20.319Z,0
2022-10-30T18:30:26.062Z,0
2022-10-30T18:32:31.714Z,0
2022-10-30T18:33:35.083Z,0
2022-10-30T18:35:40.900Z,0
2022-10-30T18:37:47.492Z,0
2022-10-30T18:38:50.482Z,0
2022-10-30T18:39:53.011Z,0
2022-10-30T18:40:55.533Z,0
2022-10-30T18:43:04.285Z,0
2022-10-30T18:45:09.735Z,0
2022-10-30T18:46:12.788Z,0
2022-10-30T18:48:19.326Z,0
2022-10-30T18:50:24.573Z,0
2022-10-30T18:52:30.826Z,0
2022-10-30T18:53:37.717Z,0
2022-10-30T18:55:43.432Z,0
2022-10-30T18:57:49.965Z,0
2022-10-30T18:59:03.704Z,0
2022-10-30T19:00:07.072Z,0
2022-10-30T19:01:16.076Z,0
2022-10-30T19:02:20.288Z,0
2022-10-30T19:03:23.696Z,0
2022-10-30T19:05:29.492Z,0
2022-10-30T19:07:35.356Z,0
2022-10-30T19:08:38.228Z,0
2022-10-30T19:10:44.850Z,0
2022-10-30T19:13:17.516Z,0
2022-10-30T19:15:25.037Z,0
2022-10-30T19:17:30.933Z,0
2022-10-30T19:18:34.091Z,0
2022-10-30T19:21:16.728Z,0
2022-10-30T19:22:19.748Z,0
2022-10-30T19:23:22.918Z,0
2022-10-30T19:25:29.345Z,0
2022-10-30T19:26:32.764Z,0
2022-10-30T19:27:35.575Z,0
2022-10-30T19:28:38.753Z,0
2022-10-30T19:30:44.392Z,0
2022-10-30T19:31:47.271Z,0
2022-10-30T19:32:50.720Z,0
2022-10-30T19:33:59.501Z,0
2022-10-30T19:36:05.036Z,0
2022-10-30T19:38:11.361Z,0
2022-10-30T19:39:14.103Z,0
2022-10-30T19:41:19.981Z,0
2022-10-30T19:43:25.979Z,0
2022-10-30T19:45:33.198Z,0
2022-10-30T19:46:36.375Z,0
2022-10-30T19:49:01.650Z,0
2022-10-30T19:51:07.797Z,0
2022-10-30T19:53:14.526Z,0
2022-10-30T19:55:20.987Z,0
2022-10-30T19:56:24.678Z,0
2022-10-30T19:58:30.662Z,0
2022-10-30T20:00:38.067Z,0
2022-10-30T20:02:45.078Z,0
2022-10-30T20:03:48.435Z,0
2022-10-30T20:05:54.841Z,0
2022-10-30T20:07:04.534Z,0
2022-10-30T20:08:07.521Z,0
2022-10-30T20:10:13.135Z,0
2022-10-30T20:11:16.206Z,0
2022-10-30T20:13:22.569Z,0
2022-10-30T20:15:29.211Z,0
2022-10-30T20:17:36.122Z,0
2022-10-30T20:18:39.189Z,0
2022-10-30T20:20:45.128Z,0
2022-10-30T20:22:51.077Z,0
2022-10-30T20:24:56.569Z,0
2022-10-30T20:25:59.361Z,0
2022-10-30T20:28:09.179Z,0
2022-10-30T20:30:15.605Z,0
2022-10-30T20:31:18.978Z,0
2022-10-30T20:32:22.464Z,0
2022-10-30T20:33:25.534Z,0
2022-10-30T20:35:31.733Z,0
2022-10-30T20:37:37.504Z,0
2022-10-30T20:38:40.824Z,0
2022-10-30T20:40:47.262Z,0
2022-10-30T20:43:04.168Z,0
2022-10-30T20:45:10.391Z,0
2022-10-30T20:46:13.269Z,0
2022-10-30T20:48:20.855Z,0
2022-10-30T20:50:27.930Z,0
2022-10-30T20:52:33.448Z,0
2022-10-30T20:53:36.544Z,0
2022-10-30T20:54:39.258Z,0
2022-10-30T20:55:42.741Z,0
2022-10-30T20:57:48.822Z,0
2022-10-30T20:58:51.888Z,0
2022-10-30T20:59:55.233Z,0
2022-10-30T21:00:59.135Z,0
2022-10-30T21:03:07.281Z,0
2022-10-30T21:05:47.411Z,0
2022-10-30T21:07:53.473Z,0
2022-10-30T21:08:56.532Z,0
2022-10-30T21:09:59.880Z,0
2022-10-30T21:11:03.030Z,0
2022-10-30T21:13:13.122Z,0
2022-10-30T21:15:18.942Z,0
2022-10-30T21:16:22.019Z,0
2022-10-30T21:17:25.475Z,0
2022-10-30T21:18:28.962Z,0
2022-10-30T21:20:35.899Z,0
2022-10-30T21:22:42.053Z,0
2022-10-30T21:23:44.479Z,0
2022-10-30T21:25:50.720Z,0
2022-10-30T21:27:55.975Z,0
2022-10-30T21:30:01.226Z,0
2022-10-30T21:31:04.504Z,0
2022-10-30T21:33:10.727Z,0
2022-10-30T21:35:18.002Z,0
2022-10-30T21:37:24.547Z,0
2022-10-30T21:38:26.986Z,0
2022-10-30T21:40:32.420Z,0
2022-10-30T21:42:37.700Z,0
2022-10-30T21:44:43.953Z,0
2022-10-30T21:45:46.197Z,0
2022-10-30T21:47:51.801Z,0
2022-10-30T21:49:58.788Z,0
2022-10-30T21:51:02.536Z,0
2022-10-30T21:53:07.558Z,0
2022-10-30T21:55:13.633Z,0
2022-10-30T21:57:19.529Z,0
2022-10-30T21:58:22.052Z,0
2022-10-30T22:00:27.820Z,0
2022-10-30T22:02:34.609Z,0
2022-10-30T22:04:40.777Z,0
2022-10-30T22:05:43.663Z,0
2022-10-30T22:07:50.857Z,0
2022-10-30T22:09:57.260Z,0
2022-10-30T22:11:00.262Z,0
2022-10-30T22:13:06.901Z,0
2022-10-30T22:15:13.169Z,0
2022-10-30T22:17:19.031Z,0
2022-10-30T22:18:22.026Z,0
2022-10-30T22:20:28.268Z,0
2022-10-30T22:22:35.661Z,0
2022-10-30T22:23:38.813Z,0
2022-10-30T22:24:42.440Z,0
2022-10-30T22:25:45.513Z,0
2022-10-30T22:27:51.208Z,0
2022-10-30T22:28:54.010Z,0
2022-10-30T22:29:56.888Z,0
2022-10-30T22:30:59.878Z,0
2022-10-30T22:33:05.122Z,0
2022-10-30T22:34:07.640Z,0
2022-10-30T22:35:10.157Z,0
2022-10-30T22:36:13.318Z,0
2022-10-30T22:38:20.196Z,0
2022-10-30T22:39:22.431Z,0
2022-10-30T22:40:24.865Z,0
2022-10-30T22:41:38.992Z,0
2022-10-30T22:43:45.241Z,0
2022-10-30T22:45:51.308Z,0
2022-10-30T22:46:54.457Z,0
2022-10-30T22:49:02.148Z,0
2022-10-30T22:51:18.276Z,0
2022-10-30T22:53:25.565Z,0
2022-10-30T22:55:31.980Z,0
2022-10-30T22:56:35.222Z,0
2022-10-30T22:58:41.583Z,0
2022-10-30T23:00:47.645Z,0
2022-10-30T23:02:53.695Z,0
2022-10-30T23:03:56.789Z,0
2022-10-30T23:06:02.921Z,0
2022-10-30T23:08:09.620Z,0
2022-10-30T23:10:17.003Z,0
2022-10-30T23:11:19.447Z,0
2022-10-30T23:13:25.545Z,0
2022-10-30T23:15:31.763Z,0
2022-10-30T23:17:37.707Z,0
2022-10-30T23:18:41.060Z,0
2022-10-30T23:20:46.178Z,0
2022-10-30T23:22:50.857Z,0
2022-10-30T23:23:54.608Z,0
2022-10-30T23:24:58.628Z,0
2022-10-30T23:26:01.713Z,0
2022-10-30T23:28:08.754Z,0
2022-10-30T23:30:14.962Z,0
2022-10-30T23:31:17.532Z,0
2022-10-30T23:33:23.397Z,0
2022-10-30T23:35:29.726Z,0
2022-10-30T23:36:32.879Z,0